sensor_id;sensor_type;location;lat;lon;timestamp;P1;durP1;ratioP1;P2;durP2;ratioP2
55732;SDS011;41637;52.364;9.910;2023-06-14T00:02:03;5.50;;;2.30;;
55732;SDS011;41637;52.364;9.910;2023-06-14T00:04:31;3.70;;;2.10;;
55732;SDS011;41637;52.364;9.910;2023-06-14T00:06:58;5.60;;;2.50;;
55732;SDS011;41637;52.364;9.910;2023-06-14T00:09:25;7.10;;;2.70;;
55732;SDS011;41637;52.364;9.910;2023-06-14T00:11:52;5.00;;;2.30;;
55732;SDS011;41637;52.364;9.910;2023-06-14T00:14:19;3.70;;;2.40;;
55732;SDS011;41637;52.364;9.910;2023-06-14T00:16:46;4.10;;;2.50;;
55732;SDS011;41637;52.364;9.910;2023-06-14T00:19:14;5.50;;;2.70;;
55732;SDS011;41637;52.364;9.910;2023-06-14T00:21:42;4.20;;;2.30;;
55732;SDS011;41637;52.364;9.910;2023-06-14T00:24:09;4.70;;;2.50;;
55732;SDS011;41637;52.364;9.910;2023-06-14T00:26:36;5.10;;;2.50;;
55732;SDS011;41637;52.364;9.910;2023-06-14T00:29:03;5.10;;;2.20;;
55732;SDS011;41637;52.364;9.910;2023-06-14T00:31:30;6.80;;;2.60;;
55732;SDS011;41637;52.364;9.910;2023-06-14T00:33:57;5.20;;;2.20;;
55732;SDS011;41637;52.364;9.910;2023-06-14T00:36:24;3.20;;;2.00;;
55732;SDS011;41637;52.364;9.910;2023-06-14T00:38:51;4.40;;;2.30;;
55732;SDS011;41637;52.364;9.910;2023-06-14T00:41:18;4.00;;;2.20;;
55732;SDS011;41637;52.364;9.910;2023-06-14T00:43:45;3.70;;;2.40;;
55732;SDS011;41637;52.364;9.910;2023-06-14T00:46:12;4.00;;;2.30;;
55732;SDS011;41637;52.364;9.910;2023-06-14T00:48:39;5.80;;;2.60;;
55732;SDS011;41637;52.364;9.910;2023-06-14T00:51:06;5.80;;;2.50;;
55732;SDS011;41637;52.364;9.910;2023-06-14T00:53:34;5.20;;;2.80;;
55732;SDS011;41637;52.364;9.910;2023-06-14T00:56:02;3.20;;;2.10;;
55732;SDS011;41637;52.364;9.910;2023-06-14T00:58:29;4.10;;;2.50;;
55732;SDS011;41637;52.364;9.910;2023-06-14T01:00:58;5.60;;;2.40;;
55732;SDS011;41637;52.364;9.910;2023-06-14T01:03:25;4.40;;;2.50;;
55732;SDS011;41637;52.364;9.910;2023-06-14T01:06:45;5.60;;;2.60;;
55732;SDS011;41637;52.364;9.910;2023-06-14T01:09:37;4.80;;;2.30;;
55732;SDS011;41637;52.364;9.910;2023-06-14T01:14:29;5.30;;;2.50;;
55732;SDS011;41637;52.364;9.910;2023-06-14T01:16:57;3.30;;;2.20;;
55732;SDS011;41637;52.364;9.910;2023-06-14T01:19:27;4.30;;;2.40;;
55732;SDS011;41637;52.364;9.910;2023-06-14T01:21:55;5.90;;;2.20;;
55732;SDS011;41637;52.364;9.910;2023-06-14T01:24:22;4.10;;;2.20;;
55732;SDS011;41637;52.364;9.910;2023-06-14T01:26:53;3.70;;;2.20;;
55732;SDS011;41637;52.364;9.910;2023-06-14T01:29:24;3.60;;;2.40;;
55732;SDS011;41637;52.364;9.910;2023-06-14T01:31:54;3.30;;;2.30;;
55732;SDS011;41637;52.364;9.910;2023-06-14T01:34:21;4.70;;;2.40;;
55732;SDS011;41637;52.364;9.910;2023-06-14T01:36:48;4.20;;;2.30;;
55732;SDS011;41637;52.364;9.910;2023-06-14T01:39:16;4.50;;;2.10;;
55732;SDS011;41637;52.364;9.910;2023-06-14T01:41:44;4.20;;;2.50;;
55732;SDS011;41637;52.364;9.910;2023-06-14T01:44:13;6.30;;;2.50;;
55732;SDS011;41637;52.364;9.910;2023-06-14T01:46:41;4.80;;;2.30;;
55732;SDS011;41637;52.364;9.910;2023-06-14T01:49:10;4.30;;;2.70;;
55732;SDS011;41637;52.364;9.910;2023-06-14T01:51:37;3.70;;;2.10;;
55732;SDS011;41637;52.364;9.910;2023-06-14T01:54:04;5.40;;;2.30;;
55732;SDS011;41637;52.364;9.910;2023-06-14T01:56:31;3.40;;;1.90;;
55732;SDS011;41637;52.364;9.910;2023-06-14T01:58:58;4.50;;;2.30;;
55732;SDS011;41637;52.364;9.910;2023-06-14T02:01:25;4.80;;;2.00;;
55732;SDS011;41637;52.364;9.910;2023-06-14T02:03:53;4.40;;;2.20;;
55732;SDS011;41637;52.364;9.910;2023-06-14T02:06:20;3.80;;;2.20;;
55732;SDS011;41637;52.364;9.910;2023-06-14T02:08:46;4.00;;;2.40;;
55732;SDS011;41637;52.364;9.910;2023-06-14T02:11:13;4.40;;;1.90;;
55732;SDS011;41637;52.364;9.910;2023-06-14T02:13:41;5.10;;;2.30;;
55732;SDS011;41637;52.364;9.910;2023-06-14T02:16:08;5.50;;;2.60;;
55732;SDS011;41637;52.364;9.910;2023-06-14T02:18:36;3.00;;;1.90;;
55732;SDS011;41637;52.364;9.910;2023-06-14T02:21:03;4.30;;;1.90;;
55732;SDS011;41637;52.364;9.910;2023-06-14T02:23:30;4.40;;;2.50;;
55732;SDS011;41637;52.364;9.910;2023-06-14T02:26:00;4.50;;;2.30;;
55732;SDS011;41637;52.364;9.910;2023-06-14T02:28:29;3.80;;;2.10;;
55732;SDS011;41637;52.364;9.910;2023-06-14T02:30:56;5.70;;;2.10;;
55732;SDS011;41637;52.364;9.910;2023-06-14T02:33:23;3.70;;;2.00;;
55732;SDS011;41637;52.364;9.910;2023-06-14T02:35:51;5.10;;;2.20;;
55732;SDS011;41637;52.364;9.910;2023-06-14T02:38:19;5.20;;;2.00;;
55732;SDS011;41637;52.364;9.910;2023-06-14T02:40:47;4.00;;;2.20;;
55732;SDS011;41637;52.364;9.910;2023-06-14T02:43:14;3.90;;;2.20;;
55732;SDS011;41637;52.364;9.910;2023-06-14T02:45:41;6.00;;;2.10;;
55732;SDS011;41637;52.364;9.910;2023-06-14T02:48:08;3.30;;;2.00;;
55732;SDS011;41637;52.364;9.910;2023-06-14T02:50:36;4.60;;;2.40;;
55732;SDS011;41637;52.364;9.910;2023-06-14T02:53:03;4.30;;;2.30;;
55732;SDS011;41637;52.364;9.910;2023-06-14T02:55:30;7.10;;;2.30;;
55732;SDS011;41637;52.364;9.910;2023-06-14T02:57:57;4.20;;;2.40;;
55732;SDS011;41637;52.364;9.910;2023-06-14T03:00:23;5.10;;;2.40;;
55732;SDS011;41637;52.364;9.910;2023-06-14T03:02:50;4.50;;;2.10;;
55732;SDS011;41637;52.364;9.910;2023-06-14T03:05:18;4.80;;;2.50;;
55732;SDS011;41637;52.364;9.910;2023-06-14T03:07:48;3.90;;;2.00;;
55732;SDS011;41637;52.364;9.910;2023-06-14T03:10:16;4.30;;;2.00;;
55732;SDS011;41637;52.364;9.910;2023-06-14T03:12:43;6.10;;;2.40;;
55732;SDS011;41637;52.364;9.910;2023-06-14T03:15:11;4.70;;;2.30;;
55732;SDS011;41637;52.364;9.910;2023-06-14T03:17:39;4.80;;;2.20;;
55732;SDS011;41637;52.364;9.910;2023-06-14T03:20:07;8.30;;;2.50;;
55732;SDS011;41637;52.364;9.910;2023-06-14T03:22:34;5.10;;;2.50;;
55732;SDS011;41637;52.364;9.910;2023-06-14T03:25:02;5.90;;;2.40;;
55732;SDS011;41637;52.364;9.910;2023-06-14T03:27:30;4.80;;;2.30;;
55732;SDS011;41637;52.364;9.910;2023-06-14T03:29:57;3.80;;;2.20;;
55732;SDS011;41637;52.364;9.910;2023-06-14T03:32:24;5.80;;;2.50;;
55732;SDS011;41637;52.364;9.910;2023-06-14T03:34:51;3.60;;;2.30;;
55732;SDS011;41637;52.364;9.910;2023-06-14T03:37:18;4.90;;;2.20;;
55732;SDS011;41637;52.364;9.910;2023-06-14T03:39:45;4.80;;;2.30;;
55732;SDS011;41637;52.364;9.910;2023-06-14T03:42:13;5.40;;;2.50;;
55732;SDS011;41637;52.364;9.910;2023-06-14T03:44:40;5.00;;;2.30;;
55732;SDS011;41637;52.364;9.910;2023-06-14T03:47:07;4.50;;;2.50;;
55732;SDS011;41637;52.364;9.910;2023-06-14T03:49:34;4.70;;;2.10;;
55732;SDS011;41637;52.364;9.910;2023-06-14T03:52:01;4.60;;;2.20;;
55732;SDS011;41637;52.364;9.910;2023-06-14T03:54:29;6.00;;;2.30;;
55732;SDS011;41637;52.364;9.910;2023-06-14T03:57:01;6.50;;;2.40;;
55732;SDS011;41637;52.364;9.910;2023-06-14T03:59:28;3.50;;;2.20;;
55732;SDS011;41637;52.364;9.910;2023-06-14T04:01:55;3.70;;;2.30;;
55732;SDS011;41637;52.364;9.910;2023-06-14T04:04:22;5.20;;;2.10;;
55732;SDS011;41637;52.364;9.910;2023-06-14T04:06:57;4.90;;;2.30;;
55732;SDS011;41637;52.364;9.910;2023-06-14T04:09:26;5.60;;;2.30;;
55732;SDS011;41637;52.364;9.910;2023-06-14T04:11:53;5.10;;;2.30;;
55732;SDS011;41637;52.364;9.910;2023-06-14T04:14:21;3.60;;;2.30;;
55732;SDS011;41637;52.364;9.910;2023-06-14T04:16:49;5.10;;;2.20;;
55732;SDS011;41637;52.364;9.910;2023-06-14T04:19:16;5.10;;;2.20;;
55732;SDS011;41637;52.364;9.910;2023-06-14T04:21:42;4.60;;;2.30;;
55732;SDS011;41637;52.364;9.910;2023-06-14T04:24:09;5.00;;;2.10;;
55732;SDS011;41637;52.364;9.910;2023-06-14T04:26:41;4.00;;;2.10;;
55732;SDS011;41637;52.364;9.910;2023-06-14T04:29:11;4.00;;;2.30;;
55732;SDS011;41637;52.364;9.910;2023-06-14T04:31:42;4.30;;;2.10;;
55732;SDS011;41637;52.364;9.910;2023-06-14T04:34:10;4.00;;;2.30;;
55732;SDS011;41637;52.364;9.910;2023-06-14T04:36:42;4.40;;;2.20;;
55732;SDS011;41637;52.364;9.910;2023-06-14T04:39:15;5.70;;;2.10;;
55732;SDS011;41637;52.364;9.910;2023-06-14T04:41:44;4.10;;;1.80;;
55732;SDS011;41637;52.364;9.910;2023-06-14T04:44:11;4.70;;;2.10;;
55732;SDS011;41637;52.364;9.910;2023-06-14T04:46:39;4.80;;;2.10;;
55732;SDS011;41637;52.364;9.910;2023-06-14T04:49:15;2.80;;;1.90;;
55732;SDS011;41637;52.364;9.910;2023-06-14T04:51:43;3.10;;;1.90;;
55732;SDS011;41637;52.364;9.910;2023-06-14T04:54:11;4.40;;;1.90;;
55732;SDS011;41637;52.364;9.910;2023-06-14T04:56:41;5.00;;;2.20;;
55732;SDS011;41637;52.364;9.910;2023-06-14T04:59:08;4.10;;;1.90;;
55732;SDS011;41637;52.364;9.910;2023-06-14T05:01:35;5.80;;;2.00;;
55732;SDS011;41637;52.364;9.910;2023-06-14T05:04:06;6.60;;;1.90;;
55732;SDS011;41637;52.364;9.910;2023-06-14T05:06:33;4.50;;;1.70;;
55732;SDS011;41637;52.364;9.910;2023-06-14T05:09:00;6.30;;;2.30;;
55732;SDS011;41637;52.364;9.910;2023-06-14T05:11:27;5.30;;;1.70;;
55732;SDS011;41637;52.364;9.910;2023-06-14T05:13:54;4.10;;;1.80;;
55732;SDS011;41637;52.364;9.910;2023-06-14T05:16:21;6.10;;;1.80;;
55732;SDS011;41637;52.364;9.910;2023-06-14T05:18:49;5.20;;;1.80;;
55732;SDS011;41637;52.364;9.910;2023-06-14T05:21:17;4.80;;;1.70;;
55732;SDS011;41637;52.364;9.910;2023-06-14T05:23:44;4.50;;;1.70;;
55732;SDS011;41637;52.364;9.910;2023-06-14T05:26:11;3.90;;;1.90;;
55732;SDS011;41637;52.364;9.910;2023-06-14T05:28:38;2.30;;;1.50;;
55732;SDS011;41637;52.364;9.910;2023-06-14T05:31:05;4.50;;;1.80;;
55732;SDS011;41637;52.364;9.910;2023-06-14T05:33:31;3.70;;;1.70;;
55732;SDS011;41637;52.364;9.910;2023-06-14T05:35:58;3.40;;;1.70;;
55732;SDS011;41637;52.364;9.910;2023-06-14T05:38:25;4.90;;;1.90;;
55732;SDS011;41637;52.364;9.910;2023-06-14T05:40:52;4.10;;;1.80;;
55732;SDS011;41637;52.364;9.910;2023-06-14T05:43:20;4.20;;;1.80;;
55732;SDS011;41637;52.364;9.910;2023-06-14T05:45:46;5.00;;;1.60;;
55732;SDS011;41637;52.364;9.910;2023-06-14T05:48:14;2.70;;;1.40;;
55732;SDS011;41637;52.364;9.910;2023-06-14T05:50:41;4.20;;;1.70;;
55732;SDS011;41637;52.364;9.910;2023-06-14T05:53:07;3.40;;;1.90;;
55732;SDS011;41637;52.364;9.910;2023-06-14T05:55:34;3.40;;;1.60;;
55732;SDS011;41637;52.364;9.910;2023-06-14T05:58:02;4.90;;;1.90;;
55732;SDS011;41637;52.364;9.910;2023-06-14T06:00:29;5.40;;;2.00;;
55732;SDS011;41637;52.364;9.910;2023-06-14T06:02:56;2.50;;;1.70;;
55732;SDS011;41637;52.364;9.910;2023-06-14T06:05:27;3.30;;;1.70;;
55732;SDS011;41637;52.364;9.910;2023-06-14T06:07:54;4.60;;;1.70;;
55732;SDS011;41637;52.364;9.910;2023-06-14T06:10:21;4.00;;;1.50;;
55732;SDS011;41637;52.364;9.910;2023-06-14T06:12:48;3.90;;;1.90;;
55732;SDS011;41637;52.364;9.910;2023-06-14T06:15:15;4.60;;;1.70;;
55732;SDS011;41637;52.364;9.910;2023-06-14T06:17:43;4.40;;;1.80;;
55732;SDS011;41637;52.364;9.910;2023-06-14T06:20:21;4.80;;;1.90;;
55732;SDS011;41637;52.364;9.910;2023-06-14T06:22:55;7.40;;;2.10;;
55732;SDS011;41637;52.364;9.910;2023-06-14T06:25:22;3.40;;;1.60;;
55732;SDS011;41637;52.364;9.910;2023-06-14T06:27:53;3.80;;;1.90;;
55732;SDS011;41637;52.364;9.910;2023-06-14T06:30:20;8.80;;;2.00;;
55732;SDS011;41637;52.364;9.910;2023-06-14T06:32:47;3.10;;;1.70;;
55732;SDS011;41637;52.364;9.910;2023-06-14T06:35:14;3.00;;;1.80;;
55732;SDS011;41637;52.364;9.910;2023-06-14T06:37:41;2.90;;;1.80;;
55732;SDS011;41637;52.364;9.910;2023-06-14T06:40:09;4.40;;;1.80;;
55732;SDS011;41637;52.364;9.910;2023-06-14T06:42:36;4.10;;;1.90;;
55732;SDS011;41637;52.364;9.910;2023-06-14T06:45:04;4.70;;;1.80;;
55732;SDS011;41637;52.364;9.910;2023-06-14T06:47:31;5.90;;;1.90;;
55732;SDS011;41637;52.364;9.910;2023-06-14T06:49:58;5.80;;;1.90;;
55732;SDS011;41637;52.364;9.910;2023-06-14T06:52:26;3.50;;;1.90;;
55732;SDS011;41637;52.364;9.910;2023-06-14T06:54:53;4.90;;;1.90;;
55732;SDS011;41637;52.364;9.910;2023-06-14T06:57:21;4.30;;;2.00;;
55732;SDS011;41637;52.364;9.910;2023-06-14T06:59:51;6.20;;;2.20;;
55732;SDS011;41637;52.364;9.910;2023-06-14T07:02:18;5.20;;;1.70;;
55732;SDS011;41637;52.364;9.910;2023-06-14T07:04:45;3.00;;;1.60;;
55732;SDS011;41637;52.364;9.910;2023-06-14T07:07:12;5.60;;;2.30;;
55732;SDS011;41637;52.364;9.910;2023-06-14T07:09:39;2.70;;;1.90;;
55732;SDS011;41637;52.364;9.910;2023-06-14T07:12:08;3.30;;;1.80;;
55732;SDS011;41637;52.364;9.910;2023-06-14T07:14:35;2.50;;;1.70;;
55732;SDS011;41637;52.364;9.910;2023-06-14T07:17:02;5.20;;;2.10;;
55732;SDS011;41637;52.364;9.910;2023-06-14T07:19:29;2.90;;;1.60;;
55732;SDS011;41637;52.364;9.910;2023-06-14T07:21:56;4.60;;;1.60;;
55732;SDS011;41637;52.364;9.910;2023-06-14T07:24:24;4.90;;;1.50;;
55732;SDS011;41637;52.364;9.910;2023-06-14T07:26:50;3.50;;;1.50;;
55732;SDS011;41637;52.364;9.910;2023-06-14T07:29:17;3.60;;;1.60;;
55732;SDS011;41637;52.364;9.910;2023-06-14T07:31:44;2.20;;;1.50;;
55732;SDS011;41637;52.364;9.910;2023-06-14T07:41:20;4.10;;;1.50;;
55732;SDS011;41637;52.364;9.910;2023-06-14T07:44:30;4.30;;;1.70;;
55732;SDS011;41637;52.364;9.910;2023-06-14T07:47:45;2.20;;;1.40;;
55732;SDS011;41637;52.364;9.910;2023-06-14T07:51:07;2.80;;;1.30;;
55732;SDS011;41637;52.364;9.910;2023-06-14T07:54:27;3.10;;;1.50;;
55732;SDS011;41637;52.364;9.910;2023-06-14T08:04:21;3.10;;;1.40;;
55732;SDS011;41637;52.364;9.910;2023-06-14T08:07:12;4.40;;;1.40;;
55732;SDS011;41637;52.364;9.910;2023-06-14T08:09:39;3.40;;;1.50;;
55732;SDS011;41637;52.364;9.910;2023-06-14T08:12:06;2.60;;;1.40;;
55732;SDS011;41637;52.364;9.910;2023-06-14T08:14:36;3.10;;;1.50;;
55732;SDS011;41637;52.364;9.910;2023-06-14T08:17:03;4.10;;;1.60;;
55732;SDS011;41637;52.364;9.910;2023-06-14T08:19:30;2.60;;;1.30;;
55732;SDS011;41637;52.364;9.910;2023-06-14T08:21:57;3.90;;;1.50;;
55732;SDS011;41637;52.364;9.910;2023-06-14T08:24:24;2.30;;;1.40;;
55732;SDS011;41637;52.364;9.910;2023-06-14T08:26:53;2.80;;;1.40;;
55732;SDS011;41637;52.364;9.910;2023-06-14T08:29:20;2.50;;;1.60;;
55732;SDS011;41637;52.364;9.910;2023-06-14T08:31:47;3.40;;;1.50;;
55732;SDS011;41637;52.364;9.910;2023-06-14T08:34:14;2.60;;;1.40;;
55732;SDS011;41637;52.364;9.910;2023-06-14T08:36:41;2.50;;;1.30;;
55732;SDS011;41637;52.364;9.910;2023-06-14T08:39:08;3.70;;;1.70;;
55732;SDS011;41637;52.364;9.910;2023-06-14T08:41:35;3.10;;;1.30;;
55732;SDS011;41637;52.364;9.910;2023-06-14T08:44:02;4.60;;;1.50;;
55732;SDS011;41637;52.364;9.910;2023-06-14T08:46:30;2.20;;;1.30;;
55732;SDS011;41637;52.364;9.910;2023-06-14T08:49:00;3.50;;;1.40;;
55732;SDS011;41637;52.364;9.910;2023-06-14T08:51:28;3.40;;;1.40;;
55732;SDS011;41637;52.364;9.910;2023-06-14T08:54:00;3.20;;;1.50;;
55732;SDS011;41637;52.364;9.910;2023-06-14T08:56:29;2.90;;;1.50;;
55732;SDS011;41637;52.364;9.910;2023-06-14T08:58:58;4.10;;;1.50;;
55732;SDS011;41637;52.364;9.910;2023-06-14T09:01:36;2.90;;;1.40;;
55732;SDS011;41637;52.364;9.910;2023-06-14T09:04:04;2.70;;;1.50;;
55732;SDS011;41637;52.364;9.910;2023-06-14T09:06:34;2.20;;;1.20;;
55732;SDS011;41637;52.364;9.910;2023-06-14T09:09:03;2.70;;;1.50;;
55732;SDS011;41637;52.364;9.910;2023-06-14T09:11:30;2.30;;;1.40;;
55732;SDS011;41637;52.364;9.910;2023-06-14T09:13:57;2.70;;;1.30;;
55732;SDS011;41637;52.364;9.910;2023-06-14T09:16:25;4.30;;;1.40;;
55732;SDS011;41637;52.364;9.910;2023-06-14T09:18:52;2.10;;;1.20;;
55732;SDS011;41637;52.364;9.910;2023-06-14T09:21:20;3.10;;;1.50;;
55732;SDS011;41637;52.364;9.910;2023-06-14T09:23:47;3.70;;;1.40;;
55732;SDS011;41637;52.364;9.910;2023-06-14T09:26:15;4.00;;;1.40;;
55732;SDS011;41637;52.364;9.910;2023-06-14T09:28:44;2.50;;;1.30;;
55732;SDS011;41637;52.364;9.910;2023-06-14T09:31:15;4.10;;;1.20;;
55732;SDS011;41637;52.364;9.910;2023-06-14T09:33:45;2.70;;;1.50;;
55732;SDS011;41637;52.364;9.910;2023-06-14T09:36:21;3.50;;;1.40;;
55732;SDS011;41637;52.364;9.910;2023-06-14T09:38:52;3.20;;;1.40;;
55732;SDS011;41637;52.364;9.910;2023-06-14T09:41:20;3.90;;;1.30;;
55732;SDS011;41637;52.364;9.910;2023-06-14T09:43:57;3.00;;;1.30;;
55732;SDS011;41637;52.364;9.910;2023-06-14T09:46:26;3.30;;;1.60;;
55732;SDS011;41637;52.364;9.910;2023-06-14T09:48:54;5.80;;;1.30;;
55732;SDS011;41637;52.364;9.910;2023-06-14T09:51:22;2.80;;;1.30;;
55732;SDS011;41637;52.364;9.910;2023-06-14T09:53:49;3.80;;;1.20;;
55732;SDS011;41637;52.364;9.910;2023-06-14T09:56:17;3.30;;;1.40;;
55732;SDS011;41637;52.364;9.910;2023-06-14T09:58:54;2.40;;;1.60;;
55732;SDS011;41637;52.364;9.910;2023-06-14T10:01:33;3.40;;;1.40;;
55732;SDS011;41637;52.364;9.910;2023-06-14T10:04:03;2.30;;;1.40;;
55732;SDS011;41637;52.364;9.910;2023-06-14T10:06:37;2.70;;;1.60;;
55732;SDS011;41637;52.364;9.910;2023-06-14T10:09:08;2.60;;;1.50;;
55732;SDS011;41637;52.364;9.910;2023-06-14T10:11:36;2.80;;;1.70;;
55732;SDS011;41637;52.364;9.910;2023-06-14T10:14:06;3.00;;;1.30;;
55732;SDS011;41637;52.364;9.910;2023-06-14T10:19:24;3.40;;;2.00;;
55732;SDS011;41637;52.364;9.910;2023-06-14T10:22:02;4.30;;;1.70;;
55732;SDS011;41637;52.364;9.910;2023-06-14T10:24:38;4.00;;;1.60;;
55732;SDS011;41637;52.364;9.910;2023-06-14T10:27:07;3.70;;;1.40;;
55732;SDS011;41637;52.364;9.910;2023-06-14T10:30:01;2.20;;;1.40;;
55732;SDS011;41637;52.364;9.910;2023-06-14T10:32:29;3.40;;;1.50;;
55732;SDS011;41637;52.364;9.910;2023-06-14T10:35:04;2.10;;;1.50;;
55732;SDS011;41637;52.364;9.910;2023-06-14T10:37:33;2.90;;;1.50;;
55732;SDS011;41637;52.364;9.910;2023-06-14T10:40:02;3.60;;;1.60;;
55732;SDS011;41637;52.364;9.910;2023-06-14T10:42:34;4.10;;;1.50;;
55732;SDS011;41637;52.364;9.910;2023-06-14T10:45:01;4.80;;;1.80;;
55732;SDS011;41637;52.364;9.910;2023-06-14T10:47:28;3.10;;;1.50;;
55732;SDS011;41637;52.364;9.910;2023-06-14T10:50:04;3.30;;;1.60;;
55732;SDS011;41637;52.364;9.910;2023-06-14T10:52:34;5.70;;;1.80;;
55732;SDS011;41637;52.364;9.910;2023-06-14T10:55:10;3.20;;;1.50;;
55732;SDS011;41637;52.364;9.910;2023-06-14T10:57:51;3.00;;;1.80;;
55732;SDS011;41637;52.364;9.910;2023-06-14T11:00:22;5.30;;;1.60;;
55732;SDS011;41637;52.364;9.910;2023-06-14T11:05:41;3.80;;;1.80;;
55732;SDS011;41637;52.364;9.910;2023-06-14T11:10:59;3.80;;;1.70;;
55732;SDS011;41637;52.364;9.910;2023-06-14T11:13:26;3.10;;;1.60;;
55732;SDS011;41637;52.364;9.910;2023-06-14T11:15:57;4.40;;;1.60;;
55732;SDS011;41637;52.364;9.910;2023-06-14T11:18:24;4.70;;;1.80;;
55732;SDS011;41637;52.364;9.910;2023-06-14T11:21:02;3.20;;;1.50;;
55732;SDS011;41637;52.364;9.910;2023-06-14T11:23:29;2.90;;;1.50;;
55732;SDS011;41637;52.364;9.910;2023-06-14T11:25:59;4.60;;;1.90;;
55732;SDS011;41637;52.364;9.910;2023-06-14T11:28:39;3.20;;;1.60;;
55732;SDS011;41637;52.364;9.910;2023-06-14T11:31:06;2.90;;;1.70;;
55732;SDS011;41637;52.364;9.910;2023-06-14T11:33:34;4.60;;;1.80;;
55732;SDS011;41637;52.364;9.910;2023-06-14T11:36:01;4.60;;;1.60;;
55732;SDS011;41637;52.364;9.910;2023-06-14T11:38:29;3.80;;;1.80;;
55732;SDS011;41637;52.364;9.910;2023-06-14T11:40:59;4.50;;;1.60;;
55732;SDS011;41637;52.364;9.910;2023-06-14T11:43:26;5.00;;;1.60;;
55732;SDS011;41637;52.364;9.910;2023-06-14T11:45:53;3.70;;;1.80;;
55732;SDS011;41637;52.364;9.910;2023-06-14T11:48:37;2.80;;;1.90;;
55732;SDS011;41637;52.364;9.910;2023-06-14T11:51:08;3.90;;;1.50;;
55732;SDS011;41637;52.364;9.910;2023-06-14T11:53:35;3.80;;;1.80;;
55732;SDS011;41637;52.364;9.910;2023-06-14T11:56:02;3.50;;;2.00;;
55732;SDS011;41637;52.364;9.910;2023-06-14T11:58:29;5.20;;;1.90;;
55732;SDS011;41637;52.364;9.910;2023-06-14T12:00:56;4.50;;;1.90;;
55732;SDS011;41637;52.364;9.910;2023-06-14T12:03:24;5.20;;;1.90;;
55732;SDS011;41637;52.364;9.910;2023-06-14T12:06:13;3.10;;;1.80;;
55732;SDS011;41637;52.364;9.910;2023-06-14T12:08:38;4.90;;;1.90;;
55732;SDS011;41637;52.364;9.910;2023-06-14T12:11:07;3.40;;;2.00;;
55732;SDS011;41637;52.364;9.910;2023-06-14T12:13:38;6.50;;;1.90;;
55732;SDS011;41637;52.364;9.910;2023-06-14T12:16:10;5.00;;;2.10;;
55732;SDS011;41637;52.364;9.910;2023-06-14T12:18:38;3.60;;;2.00;;
55732;SDS011;41637;52.364;9.910;2023-06-14T12:21:07;6.10;;;2.00;;
55732;SDS011;41637;52.364;9.910;2023-06-14T12:24:11;4.50;;;2.00;;
55732;SDS011;41637;52.364;9.910;2023-06-14T12:26:29;6.30;;;2.50;;
55732;SDS011;41637;52.364;9.910;2023-06-14T12:28:57;3.30;;;2.00;;
55732;SDS011;41637;52.364;9.910;2023-06-14T12:31:24;5.50;;;2.30;;
55732;SDS011;41637;52.364;9.910;2023-06-14T12:33:52;4.00;;;1.90;;
55732;SDS011;41637;52.364;9.910;2023-06-14T12:36:19;3.70;;;2.00;;
55732;SDS011;41637;52.364;9.910;2023-06-14T12:38:46;4.60;;;2.00;;
55732;SDS011;41637;52.364;9.910;2023-06-14T12:41:12;3.10;;;1.90;;
55732;SDS011;41637;52.364;9.910;2023-06-14T12:43:40;3.90;;;2.00;;
55732;SDS011;41637;52.364;9.910;2023-06-14T12:46:08;3.80;;;2.00;;
55732;SDS011;41637;52.364;9.910;2023-06-14T12:48:34;6.20;;;2.30;;
55732;SDS011;41637;52.364;9.910;2023-06-14T12:51:01;6.20;;;2.00;;
55732;SDS011;41637;52.364;9.910;2023-06-14T12:53:28;4.00;;;2.00;;
55732;SDS011;41637;52.364;9.910;2023-06-14T12:55:54;3.40;;;1.80;;
55732;SDS011;41637;52.364;9.910;2023-06-14T12:58:21;3.70;;;1.90;;
55732;SDS011;41637;52.364;9.910;2023-06-14T13:00:49;5.20;;;2.00;;
55732;SDS011;41637;52.364;9.910;2023-06-14T13:03:17;4.40;;;1.80;;
55732;SDS011;41637;52.364;9.910;2023-06-14T13:05:44;6.90;;;1.90;;
55732;SDS011;41637;52.364;9.910;2023-06-14T13:08:11;6.20;;;2.10;;
55732;SDS011;41637;52.364;9.910;2023-06-14T13:10:37;3.20;;;1.90;;
55732;SDS011;41637;52.364;9.910;2023-06-14T13:13:04;5.60;;;1.90;;
55732;SDS011;41637;52.364;9.910;2023-06-14T13:15:30;5.10;;;2.00;;
55732;SDS011;41637;52.364;9.910;2023-06-14T13:17:58;5.20;;;2.00;;
55732;SDS011;41637;52.364;9.910;2023-06-14T13:20:24;3.60;;;2.10;;
55732;SDS011;41637;52.364;9.910;2023-06-14T13:22:51;4.50;;;2.00;;
55732;SDS011;41637;52.364;9.910;2023-06-14T13:25:18;4.70;;;2.10;;
55732;SDS011;41637;52.364;9.910;2023-06-14T13:27:45;4.90;;;2.00;;
55732;SDS011;41637;52.364;9.910;2023-06-14T13:30:12;4.40;;;1.90;;
55732;SDS011;41637;52.364;9.910;2023-06-14T13:32:39;4.70;;;2.10;;
55732;SDS011;41637;52.364;9.910;2023-06-14T13:35:06;5.20;;;2.10;;
55732;SDS011;41637;52.364;9.910;2023-06-14T13:37:33;4.70;;;1.90;;
55732;SDS011;41637;52.364;9.910;2023-06-14T13:39:59;4.60;;;2.30;;
55732;SDS011;41637;52.364;9.910;2023-06-14T13:42:27;5.10;;;1.90;;
55732;SDS011;41637;52.364;9.910;2023-06-14T13:44:54;6.40;;;2.30;;
55732;SDS011;41637;52.364;9.910;2023-06-14T13:47:21;6.80;;;2.20;;
55732;SDS011;41637;52.364;9.910;2023-06-14T13:49:47;6.50;;;2.10;;
55732;SDS011;41637;52.364;9.910;2023-06-14T13:52:14;4.20;;;2.30;;
55732;SDS011;41637;52.364;9.910;2023-06-14T13:58:13;5.30;;;2.20;;
55732;SDS011;41637;52.364;9.910;2023-06-14T14:00:41;6.50;;;2.20;;
55732;SDS011;41637;52.364;9.910;2023-06-14T14:03:07;4.30;;;2.30;;
55732;SDS011;41637;52.364;9.910;2023-06-14T14:05:35;7.70;;;2.20;;
55732;SDS011;41637;52.364;9.910;2023-06-14T14:08:02;4.50;;;2.20;;
55732;SDS011;41637;52.364;9.910;2023-06-14T14:10:31;4.40;;;1.80;;
55732;SDS011;41637;52.364;9.910;2023-06-14T14:12:59;5.30;;;2.00;;
55732;SDS011;41637;52.364;9.910;2023-06-14T14:15:26;4.50;;;2.10;;
55732;SDS011;41637;52.364;9.910;2023-06-14T14:17:53;4.70;;;2.20;;
55732;SDS011;41637;52.364;9.910;2023-06-14T14:20:20;5.00;;;1.90;;
55732;SDS011;41637;52.364;9.910;2023-06-14T14:22:47;4.10;;;1.80;;
55732;SDS011;41637;52.364;9.910;2023-06-14T14:25:14;5.20;;;1.80;;
55732;SDS011;41637;52.364;9.910;2023-06-14T14:27:41;3.60;;;2.00;;
55732;SDS011;41637;52.364;9.910;2023-06-14T14:30:08;4.30;;;2.20;;
55732;SDS011;41637;52.364;9.910;2023-06-14T14:32:35;3.20;;;1.90;;
55732;SDS011;41637;52.364;9.910;2023-06-14T14:35:02;3.80;;;2.00;;
55732;SDS011;41637;52.364;9.910;2023-06-14T14:37:29;5.20;;;2.00;;
55732;SDS011;41637;52.364;9.910;2023-06-14T14:39:55;5.10;;;2.00;;
55732;SDS011;41637;52.364;9.910;2023-06-14T14:42:22;4.90;;;2.00;;
55732;SDS011;41637;52.364;9.910;2023-06-14T14:44:49;5.10;;;2.10;;
55732;SDS011;41637;52.364;9.910;2023-06-14T14:47:16;5.40;;;1.80;;
55732;SDS011;41637;52.364;9.910;2023-06-14T14:49:42;5.90;;;2.20;;
55732;SDS011;41637;52.364;9.910;2023-06-14T14:52:09;4.00;;;2.00;;
55732;SDS011;41637;52.364;9.910;2023-06-14T14:54:49;2.90;;;2.20;;
55732;SDS011;41637;52.364;9.910;2023-06-14T14:57:16;5.40;;;2.10;;
55732;SDS011;41637;52.364;9.910;2023-06-14T14:59:43;4.90;;;1.90;;
55732;SDS011;41637;52.364;9.910;2023-06-14T15:02:10;4.10;;;2.10;;
55732;SDS011;41637;52.364;9.910;2023-06-14T15:04:37;5.30;;;2.00;;
55732;SDS011;41637;52.364;9.910;2023-06-14T15:07:04;3.70;;;2.20;;
55732;SDS011;41637;52.364;9.910;2023-06-14T15:09:32;6.10;;;2.10;;
55732;SDS011;41637;52.364;9.910;2023-06-14T15:11:59;5.10;;;2.30;;
55732;SDS011;41637;52.364;9.910;2023-06-14T15:14:26;5.50;;;2.20;;
55732;SDS011;41637;52.364;9.910;2023-06-14T15:16:53;4.50;;;2.10;;
55732;SDS011;41637;52.364;9.910;2023-06-14T15:19:20;6.50;;;2.40;;
55732;SDS011;41637;52.364;9.910;2023-06-14T15:21:47;6.30;;;2.20;;
55732;SDS011;41637;52.364;9.910;2023-06-14T15:24:14;5.70;;;2.40;;
55732;SDS011;41637;52.364;9.910;2023-06-14T15:26:47;4.60;;;2.00;;
55732;SDS011;41637;52.364;9.910;2023-06-14T15:29:14;8.30;;;2.20;;